Weather at Aerodrom Tapioles

Public forecast

Using degrees Celsius for public forecast. Weather courtesy of forecast.io.

Closest aviation weather report (METAR) to Aerodrom Tapioles

Closest report is Girona Airport, 20.5 nm (38.0 km) SSE. Retrieved 2020/09/28 01:30 UTC (28 minutes ago):

LEGE 280130Z 00000KT CAVOK 10/06 Q1013

Closest aviation forecast (TAF) to Aerodrom Tapioles

Closest forecast is Girona Airport, 20.5 nm (38.0 km) SSE. Retrieved 2020-09-28 00:26 UTC (2 hours ago):

TAF LEGE 272300Z 2800/2900 VRB04KT CAVOK TX25/2813Z TN11/2806Z BECMG 2811/2813 13008KT BECMG 2818/2820 VRB04KT